Time;durP1;ratioP1;P1;durP2;ratioP2;P2;SDS_P1;SDS_P2;PMS_P1;PMS_P2;Temp;Humidity;BMP_temperature;BMP_pressure;BME280_temperature;BME280_humidity;BME280_pressure;Samples;Min_cycle;Max_cycle;Signal;HPM_P1;HPM_P2
2021/05/07 00:01:11;;;;;;;7.30;4.87;;;;;;;8.22;58.22;100248.55;1723745;81;21180;-44
2021/05/07 00:03:40;;;;;;;9.83;5.10;;;;;;;8.18;58.41;100248.30;1720281;82;21158;-43
2021/05/07 00:06:08;;;;;;;8.40;5.53;;;;;;;8.16;58.55;100260.33;1718870;82;21121;-44
2021/05/07 00:08:38;;;;;;;6.72;4.62;;;;;;;8.13;58.72;100259.16;1712281;81;21181;-45
2021/05/07 00:11:09;;;;;;;9.78;5.80;;;;;;;8.10;58.83;100255.34;1721816;82;21212;-43
2021/05/07 00:13:37;;;;;;;8.60;4.55;;;;;;;8.06;58.73;100263.07;1714867;82;21200;-41
2021/05/07 00:16:05;;;;;;;7.70;4.80;;;;;;;8.02;58.63;100270.35;1726148;82;21193;-41
2021/05/07 00:18:33;;;;;;;9.70;4.60;;;;;;;7.97;58.67;100263.56;1754497;81;21205;-47
2021/05/07 00:21:02;;;;;;;8.85;5.17;;;;;;;7.94;58.76;100267.71;1710265;83;21201;-40
2021/05/07 00:23:29;;;;;;;9.10;4.83;;;;;;;7.83;59.02;100264.72;1714714;82;21157;-41
2021/05/07 00:25:57;;;;;;;10.65;5.85;;;;;;;7.83;59.02;100264.72;1707188;82;21188;-41
2021/05/07 00:28:25;;;;;;;9.70;4.80;;;;;;;7.81;59.09;100254.17;1710104;82;21644;-40
2021/05/07 00:30:52;;;;;;;9.13;5.03;;;;;;;7.79;59.15;100260.05;1709014;82;21181;-41
2021/05/07 00:33:22;;;;;;;9.18;5.62;;;;;;;7.76;59.22;100253.54;1706469;82;21161;-43
2021/05/07 00:35:49;;;;;;;10.43;5.17;;;;;;;7.73;59.51;100249.72;1706569;83;21177;-43
2021/05/07 00:38:17;;;;;;;8.98;5.55;;;;;;;7.73;59.51;100249.72;1700211;82;21651;-42
2021/05/07 00:40:45;;;;;;;8.80;5.20;;;;;;;7.71;60.00;100251.14;1714060;82;21178;-43
2021/05/07 00:43:13;;;;;;;8.23;5.08;;;;;;;7.69;60.03;100246.38;1712001;81;21195;-44
2021/05/07 00:45:42;;;;;;;8.45;5.53;;;;;;;7.67;60.44;100245.59;1708065;82;21213;-43
2021/05/07 00:48:13;;;;;;;7.72;5.10;;;;;;;7.65;60.78;100238.64;1722125;83;21565;-43
2021/05/07 00:50:45;;;;;;;8.33;5.30;;;;;;;7.61;60.97;100241.93;1716243;83;21160;-41
2021/05/07 00:53:17;;;;;;;8.80;5.35;;;;;;;7.57;61.16;100241.20;1707489;81;21153;-42
2021/05/07 00:55:46;;;;;;;8.90;5.60;;;;;;;7.55;61.40;100240.41;1720386;82;21184;-45
2021/05/07 00:58:15;;;;;;;11.63;5.25;;;;;;;7.52;61.72;100237.92;1708922;82;21156;-45
2021/05/07 01:00:43;;;;;;;9.53;5.50;;;;;;;7.47;61.92;100235.96;1707766;83;21155;-45
2021/05/07 01:03:11;;;;;;;9.18;5.10;;;;;;;7.43;61.82;100238.36;1712689;82;21185;-41
2021/05/07 01:05:39;;;;;;;11.90;5.80;;;;;;;7.40;61.68;100241.17;1705455;82;21642;-41
2021/05/07 01:08:09;;;;;;;8.33;5.20;;;;;;;7.34;61.67;100231.73;1699406;83;21179;-42
2021/05/07 01:10:38;;;;;;;8.35;5.65;;;;;;;7.30;61.92;100235.92;1707435;83;21187;-43
2021/05/07 01:13:06;;;;;;;11.08;5.78;;;;;;;7.30;62.13;100238.11;1660635;83;21174;-43
2021/05/07 01:15:37;;;;;;;10.35;5.87;;;;;;;7.29;62.27;100233.75;1707677;82;21170;-42
2021/05/07 01:18:05;;;;;;;9.43;6.12;;;;;;;7.26;62.49;100229.07;1706361;82;21609;-43
2021/05/07 01:20:33;;;;;;;9.18;5.70;;;;;;;7.22;62.73;100229.67;1706355;83;21174;-43
2021/05/07 01:23:05;;;;;;;7.65;5.30;;;;;;;7.22;62.73;100229.67;1689441;81;21638;-43
2021/05/07 01:25:37;;;;;;;10.70;5.78;;;;;;;7.21;63.00;100227.11;1710813;82;21605;-44
2021/05/07 01:28:07;;;;;;;8.40;5.62;;;;;;;7.16;63.47;100231.30;1705816;81;21712;-43
2021/05/07 01:30:37;;;;;;;9.13;4.85;;;;;;;7.13;63.70;100228.78;1748111;80;21455;-42
2021/05/07 01:33:05;;;;;;;9.73;5.12;;;;;;;7.11;63.70;100234.17;1742502;80;21153;-42
2021/05/07 01:35:34;;;;;;;8.45;5.35;;;;;;;7.09;63.57;100237.36;1755048;81;21194;-42
2021/05/07 01:38:10;;;;;;;7.65;5.05;;;;;;;7.09;63.59;100239.16;1743930;81;21192;-42
2021/05/07 01:40:42;;;;;;;7.47;5.05;;;;;;;7.06;63.65;100242.81;1688633;83;21220;-43
2021/05/07 01:43:10;;;;;;;13.60;6.10;;;;;;;7.01;63.78;100234.70;1724059;81;21141;-42
2021/05/07 01:45:40;;;;;;;10.70;6.00;;;;;;;6.97;64.02;100239.73;1710922;83;21170;-42
2021/05/07 01:48:08;;;;;;;10.78;5.00;;;;;;;6.95;64.23;100234.50;1718980;82;21161;-42
2021/05/07 01:50:38;;;;;;;9.10;4.87;;;;;;;6.91;64.60;100238.24;1747361;81;21113;-44
2021/05/07 01:53:06;;;;;;;8.68;5.42;;;;;;;6.89;64.70;100236.13;1745330;80;21178;-44
2021/05/07 01:55:39;;;;;;;6.65;4.30;;;;;;;6.89;65.04;100235.66;1743774;81;21176;-44
2021/05/07 01:58:10;;;;;;;6.53;4.20;;;;;;;6.88;65.39;100239.25;1712465;81;21201;-44
2021/05/07 02:00:40;;;;;;;8.23;4.42;;;;;;;6.83;65.85;100237.72;1758484;80;21637;-43
2021/05/07 02:03:08;;;;;;;5.92;4.17;;;;;;;6.83;65.85;100237.72;1743916;81;21141;-44
2021/05/07 02:05:38;;;;;;;7.08;4.53;;;;;;;6.79;65.95;100242.31;1701258;82;21159;-44
2021/05/07 02:08:06;;;;;;;7.62;4.50;;;;;;;6.76;66.07;100247.77;1736351;81;21153;-44
2021/05/07 02:10:35;;;;;;;6.62;4.15;;;;;;;6.75;66.25;100250.48;1721425;82;21703;-44
2021/05/07 02:13:10;;;;;;;6.65;4.60;;;;;;;6.74;66.47;100255.39;1713076;82;21238;-42
2021/05/07 02:15:39;;;;;;;7.15;4.83;;;;;;;6.75;66.53;100252.66;1743612;80;21702;-42
2021/05/07 02:18:08;;;;;;;7.78;4.42;;;;;;;6.73;66.56;100254.55;1704697;82;21625;-45
2021/05/07 02:20:39;;;;;;;7.08;4.40;;;;;;;6.72;66.62;100251.48;1719841;81;21136;-45
2021/05/07 02:23:08;;;;;;;7.17;5.08;;;;;;;6.71;66.81;100251.09;1717526;81;21201;-45
2021/05/07 02:25:36;;;;;;;5.72;4.62;;;;;;;6.70;67.04;100253.33;1726052;81;21581;-45
2021/05/07 02:28:06;;;;;;;8.33;5.30;;;;;;;6.69;67.30;100262.23;1732766;81;21147;-45
2021/05/07 02:30:35;;;;;;;6.75;4.58;;;;;;;6.70;67.59;100262.17;1709001;81;21208;-46
2021/05/07 02:33:05;;;;;;;8.05;4.75;;;;;;;6.72;67.93;100262.94;1719689;81;21193;-44
2021/05/07 02:35:35;;;;;;;6.10;4.17;;;;;;;6.75;68.26;100262.41;1703094;82;21169;-43
2021/05/07 02:38:03;;;;;;;8.13;5.72;;;;;;;6.77;68.65;100262.73;1690253;81;21158;-42
2021/05/07 02:40:31;;;;;;;6.40;4.58;;;;;;;6.80;68.95;100257.75;1709214;81;21199;-44
2021/05/07 02:42:59;;;;;;;5.75;4.62;;;;;;;6.83;69.44;100250.97;1718095;81;21173;-43
2021/05/07 02:45:29;;;;;;;6.83;4.47;;;;;;;6.83;69.44;100250.97;1726602;81;21193;-43
2021/05/07 02:47:56;;;;;;;6.42;4.28;;;;;;;6.84;69.45;100254.03;1721000;82;21168;-41
2021/05/07 02:50:24;;;;;;;8.40;3.90;;;;;;;6.86;69.62;100251.70;1715637;81;21161;-43
2021/05/07 02:52:52;;;;;;;10.10;5.22;;;;;;;6.88;69.75;100250.32;1715751;82;21198;-43
2021/05/07 02:55:20;;;;;;;7.85;4.87;;;;;;;6.90;69.85;100250.64;1754561;81;21164;-43
2021/05/07 02:57:47;;;;;;;6.80;4.55;;;;;;;6.91;69.89;100255.00;1688426;82;21168;-44
2021/05/07 03:00:18;;;;;;;6.08;4.35;;;;;;;6.90;69.95;100253.30;1720942;82;21112;-44
2021/05/07 03:02:45;;;;;;;7.83;4.05;;;;;;;6.91;70.00;100252.83;1728972;80;21202;-43
2021/05/07 03:05:14;;;;;;;6.65;4.55;;;;;;;6.92;70.07;100252.73;1738039;81;21187;-43
2021/05/07 03:07:42;;;;;;;7.95;4.17;;;;;;;6.94;70.16;100252.20;1735394;80;21166;-44
2021/05/07 03:10:10;;;;;;;8.38;4.30;;;;;;;6.95;70.09;100253.05;1716581;83;21189;-43
2021/05/07 03:12:40;;;;;;;7.03;4.17;;;;;;;6.98;70.03;100256.03;1711428;83;21185;-42
2021/05/07 03:15:09;;;;;;;6.12;3.85;;;;;;;6.99;69.87;100254.64;1710282;81;21172;-43
2021/05/07 03:17:38;;;;;;;9.50;4.03;;;;;;;7.00;69.55;100260.33;1705909;82;21139;-48
2021/05/07 03:20:07;;;;;;;9.13;4.35;;;;;;;7.02;69.42;100258.47;1699730;82;21244;-42
2021/05/07 03:22:35;;;;;;;7.40;3.62;;;;;;;7.04;69.01;100262.38;1703724;83;21213;-44
2021/05/07 03:25:03;;;;;;;8.88;4.78;;;;;;;7.06;68.60;100256.08;1713336;82;21169;-42
2021/05/07 03:27:31;;;;;;;6.62;3.90;;;;;;;7.07;68.31;100264.88;1711092;82;21307;-43
2021/05/07 03:29:59;;;;;;;7.33;3.72;;;;;;;7.12;68.26;100267.70;1689377;83;21154;-43
2021/05/07 03:32:27;;;;;;;6.80;4.03;;;;;;;7.16;68.10;100269.77;1739153;80;21148;-43
2021/05/07 03:34:56;;;;;;;7.37;3.35;;;;;;;7.20;67.86;100275.30;1719071;82;22009;-43
2021/05/07 03:37:24;;;;;;;6.05;3.72;;;;;;;7.25;67.65;100271.95;1701414;81;21615;-43
2021/05/07 03:39:51;;;;;;;6.22;3.60;;;;;;;7.31;67.31;100283.61;1741471;81;21596;-43
2021/05/07 03:42:19;;;;;;;8.78;3.95;;;;;;;7.37;67.18;100286.43;1723346;82;21140;-43
2021/05/07 03:44:48;;;;;;;6.33;3.50;;;;;;;7.51;65.43;100285.30;1742638;80;21141;-45
2021/05/07 03:47:15;;;;;;;6.03;3.65;;;;;;;7.51;65.43;100285.30;1729192;80;21177;-44
2021/05/07 03:49:43;;;;;;;5.83;3.45;;;;;;;7.58;64.65;100289.83;1727155;81;21173;-44
2021/05/07 03:52:11;;;;;;;6.25;3.35;;;;;;;7.64;64.25;100274.94;1731775;80;21149;-46
2021/05/07 03:54:38;;;;;;;5.67;3.33;;;;;;;7.72;63.95;100285.18;1724831;82;21165;-45
2021/05/07 03:57:06;;;;;;;6.75;3.45;;;;;;;7.86;64.19;100284.47;1722619;81;21210;-47
2021/05/07 03:59:34;;;;;;;4.97;2.92;;;;;;;7.86;64.19;100284.47;1712203;81;21235;-46
2021/05/07 04:02:02;;;;;;;7.60;3.70;;;;;;;7.91;64.50;100287.31;1744900;80;21177;-46
2021/05/07 04:04:32;;;;;;;5.58;3.33;;;;;;;7.95;64.72;100276.91;1707654;83;21197;-43
2021/05/07 04:06:59;;;;;;;7.53;4.15;;;;;;;8.01;64.94;100281.92;1738639;81;21193;-45
2021/05/07 04:09:33;;;;;;;7.50;3.70;;;;;;;8.07;65.17;100279.89;1733991;81;21160;-43
2021/05/07 04:12:09;;;;;;;6.28;3.77;;;;;;;8.11;65.50;100280.95;1736968;81;21173;-45
2021/05/07 04:14:26;;;;;;;6.45;3.35;;;;;;;8.15;65.63;100276.36;1717672;81;21181;-43
2021/05/07 04:16:55;;;;;;;6.20;3.67;;;;;;;8.20;65.37;100277.84;1716663;81;21149;-44
2021/05/07 04:19:22;;;;;;;4.78;2.75;;;;;;;8.27;64.98;100282.38;1710935;82;21619;-44
2021/05/07 04:21:50;;;;;;;6.80;3.77;;;;;;;8.32;65.09;100286.98;1710980;81;21588;-45
2021/05/07 04:24:17;;;;;;;5.72;3.33;;;;;;;8.36;65.27;100285.86;1728978;81;21658;-43
2021/05/07 04:26:45;;;;;;;5.62;2.98;;;;;;;8.47;65.27;100282.69;1721445;82;21125;-43
2021/05/07 04:29:13;;;;;;;4.65;3.05;;;;;;;8.53;65.16;100280.17;1722286;82;21593;-42
2021/05/07 04:31:41;;;;;;;7.35;3.90;;;;;;;8.53;65.16;100280.17;1718523;82;21140;-42
2021/05/07 04:37:54;;;;;;;6.15;3.12;;;;;;;8.60;64.73;100289.06;1689551;83;21258;-42
2021/05/07 04:40:22;;;;;;;5.03;3.08;;;;;;;8.71;63.10;100292.95;1682319;83;21163;-42
2021/05/07 04:42:49;;;;;;;10.63;7.50;;;;;;;8.71;63.10;100292.95;1758722;80;21582;-43
2021/05/07 04:45:17;;;;;;;8.65;4.75;;;;;;;8.76;62.96;100290.42;1755465;79;21666;-43
2021/05/07 04:47:45;;;;;;;5.47;3.67;;;;;;;8.81;62.91;100281.73;1760062;80;21610;-43
2021/05/07 04:50:14;;;;;;;9.48;3.60;;;;;;;8.87;62.14;100284.07;1702910;82;21777;-42
2021/05/07 04:52:42;;;;;;;4.35;2.92;;;;;;;8.96;62.03;100283.17;1757704;79;21170;-43
2021/05/07 04:55:11;;;;;;;6.25;2.92;;;;;;;9.02;62.02;100281.05;1737472;80;21171;-42
2021/05/07 04:57:38;;;;;;;7.05;3.45;;;;;;;9.12;61.72;100273.86;1750768;80;21633;-45
2021/05/07 05:00:07;;;;;;;7.33;3.42;;;;;;;9.21;61.49;100275.55;1740346;80;22139;-45
2021/05/07 05:02:35;;;;;;;5.67;3.77;;;;;;;9.30;61.17;100272.38;1741171;80;21676;-44
2021/05/07 05:05:04;;;;;;;6.87;2.95;;;;;;;9.39;61.36;100264.81;1753167;80;21189;-43
2021/05/07 05:07:34;;;;;;;6.72;2.92;;;;;;;9.46;61.51;100264.37;1763328;80;21130;-43
2021/05/07 05:10:06;;;;;;;4.72;2.87;;;;;;;9.54;61.26;100268.77;1751256;80;21175;-44
2021/05/07 05:12:34;;;;;;;5.03;3.67;;;;;;;9.62;61.14;100266.14;1746208;80;21144;-44
2021/05/07 05:15:02;;;;;;;4.95;3.20;;;;;;;9.70;61.37;100263.89;1743734;80;21929;-43
2021/05/07 05:17:29;;;;;;;9.63;3.37;;;;;;;9.77;61.47;100265.25;1742717;80;21158;-43
2021/05/07 05:19:57;;;;;;;6.53;3.27;;;;;;;9.83;61.68;100263.58;1745350;80;21536;-44
2021/05/07 05:22:25;;;;;;;7.25;3.12;;;;;;;9.89;61.27;100267.20;1732683;80;21656;-44
2021/05/07 05:24:53;;;;;;;5.37;3.70;;;;;;;9.96;60.90;100269.04;1750992;80;21116;-46
2021/05/07 05:27:20;;;;;;;10.82;7.05;;;;;;;10.04;60.55;100272.58;1746297;80;21571;-46
2021/05/07 05:29:48;;;;;;;6.87;3.70;;;;;;;10.11;59.93;100266.79;1738129;80;21173;-46
2021/05/07 05:32:15;;;;;;;4.85;3.20;;;;;;;10.20;59.43;100264.03;1737501;81;21166;-47
2021/05/07 05:34:44;;;;;;;9.53;3.55;;;;;;;10.29;58.74;100266.19;1752896;80;21177;-44
2021/05/07 05:37:12;;;;;;;5.70;2.83;;;;;;;10.40;57.35;100267.70;1723692;81;21745;-43
2021/05/07 05:39:40;;;;;;;4.53;2.72;;;;;;;10.52;54.77;100270.11;1721548;81;21179;-45
2021/05/07 05:42:10;;;;;;;5.72;2.02;;;;;;;10.66;54.05;100263.94;1744313;80;21153;-45
2021/05/07 05:44:38;;;;;;;3.98;2.27;;;;;;;10.78;53.28;100262.30;1751715;80;21162;-46
2021/05/07 05:47:06;;;;;;;7.78;2.55;;;;;;;10.91;52.35;100260.59;1742602;80;21142;-45
2021/05/07 05:49:34;;;;;;;3.58;2.10;;;;;;;11.02;52.41;100258.08;1736300;80;21570;-46
2021/05/07 05:52:02;;;;;;;4.28;1.82;;;;;;;11.14;51.54;100255.12;1766243;80;21954;-44
2021/05/07 05:54:32;;;;;;;4.33;2.08;;;;;;;11.26;50.61;100255.66;1757529;80;21567;-46
2021/05/07 05:56:59;;;;;;;3.27;1.70;;;;;;;11.39;49.96;100247.71;1737144;80;21581;-46
2021/05/07 05:59:29;;;;;;;5.90;1.80;;;;;;;11.54;49.71;100251.19;1722111;80;21704;-47
2021/05/07 06:01:56;;;;;;;5.97;1.72;;;;;;;11.65;47.40;100251.31;1719301;81;21166;-46
2021/05/07 06:04:24;;;;;;;4.15;1.98;;;;;;;11.80;46.72;100257.45;1699405;82;21524;-45
2021/05/07 06:06:52;;;;;;;3.87;1.75;;;;;;;11.92;45.89;100258.48;1706993;82;21663;-43
2021/05/07 06:13:14;;;;;;;5.10;1.95;;;;;;;12.17;45.51;100254.13;1760652;80;21724;-44
2021/05/07 06:15:42;;;;;;;3.08;2.05;;;;;;;12.33;45.20;100252.12;1767405;79;21223;-45
2021/05/07 06:18:10;;;;;;;6.33;2.30;;;;;;;12.47;45.33;100253.81;1739643;80;21205;-45
2021/05/07 06:20:39;;;;;;;7.47;1.60;;;;;;;12.60;45.61;100248.46;1753812;79;21169;-44
2021/05/07 06:23:07;;;;;;;3.27;1.72;;;;;;;12.72;44.41;100244.92;1748939;80;21161;-45
2021/05/07 06:25:35;;;;;;;3.25;1.60;;;;;;;12.82;42.91;100240.63;1739607;79;21182;-46
2021/05/07 06:28:04;;;;;;;2.87;1.32;;;;;;;12.91;42.83;100244.48;1744822;79;21191;-45
2021/05/07 06:30:31;;;;;;;2.08;1.22;;;;;;;13.00;43.15;100241.11;1745740;79;21150;-47
2021/05/07 06:33:03;;;;;;;4.85;1.40;;;;;;;13.12;41.48;100244.24;1743919;80;21189;-41
2021/05/07 06:35:32;;;;;;;3.90;1.50;;;;;;;13.21;41.33;100241.39;1694449;82;21166;-44
2021/05/07 06:38:01;;;;;;;4.03;1.40;;;;;;;13.30;41.15;100244.75;1758734;79;21149;-48
2021/05/07 06:40:29;;;;;;;2.58;1.10;;;;;;;13.38;41.24;100239.70;1770749;80;21185;-46
2021/05/07 06:42:57;;;;;;;1.87;1.25;;;;;;;13.47;40.73;100245.34;1746970;79;21165;-46
2021/05/07 06:45:27;;;;;;;1.95;1.02;;;;;;;13.54;39.69;100244.77;1745959;80;21153;-46
2021/05/07 06:47:55;;;;;;;6.92;1.05;;;;;;;13.62;37.85;100244.20;1750728;80;21197;-44
2021/05/07 06:50:23;;;;;;;5.17;2.65;;;;;;;13.71;37.75;100239.95;1745745;80;21197;-46
2021/05/07 06:52:51;;;;;;;4.05;2.00;;;;;;;13.78;37.76;100231.83;1755280;80;21137;-46
2021/05/07 06:55:18;;;;;;;3.42;1.15;;;;;;;13.85;37.48;100233.08;1750309;80;21136;-47
2021/05/07 06:57:46;;;;;;;5.03;1.37;;;;;;;13.94;38.09;100234.22;1759231;79;21177;-43
2021/05/07 07:00:15;;;;;;;3.55;1.27;;;;;;;14.03;37.64;100233.50;1763368;79;21733;-48
2021/05/07 07:02:43;;;;;;;2.80;1.10;;;;;;;14.12;37.66;100226.59;1754146;80;21114;-45
2021/05/07 07:05:12;;;;;;;1.62;1.00;;;;;;;14.23;37.17;100222.58;1762533;80;21530;-44
2021/05/07 07:07:40;;;;;;;3.02;1.52;;;;;;;14.31;37.22;100222.83;1745356;80;21316;-43
2021/05/07 07:10:10;;;;;;;1.85;1.00;;;;;;;14.41;35.90;100225.18;1742101;80;21635;-46
2021/05/07 07:12:40;;;;;;;2.20;0.90;;;;;;;14.52;36.47;100221.64;1744275;80;21579;-46
2021/05/07 07:15:09;;;;;;;2.15;1.25;;;;;;;14.63;36.83;100219.48;1756200;80;21277;-46
2021/05/07 07:17:37;;;;;;;3.33;1.00;;;;;;;14.71;36.50;100220.56;1739764;80;21169;-45
2021/05/07 07:20:07;;;;;;;2.80;1.12;;;;;;;14.80;35.46;100212.28;1733937;81;21175;-45
2021/05/07 07:22:35;;;;;;;3.60;1.77;;;;;;;14.86;35.44;100217.63;1757393;80;21150;-46
2021/05/07 07:25:04;;;;;;;3.55;1.50;;;;;;;14.90;35.11;100221.79;1755856;80;21698;-45
2021/05/07 07:27:32;;;;;;;5.42;1.70;;;;;;;14.93;34.83;100216.17;1750715;80;21150;-51
2021/05/07 07:30:00;;;;;;;2.95;1.20;;;;;;;14.96;35.00;100219.09;1747872;80;21614;-47
2021/05/07 07:32:28;;;;;;;4.55;1.30;;;;;;;14.97;35.37;100216.30;1761807;80;21523;-49
2021/05/07 07:35:03;;;;;;;2.25;1.10;;;;;;;14.98;35.82;100214.45;1766976;80;21253;-48
2021/05/07 07:37:28;;;;;;;3.22;1.10;;;;;;;15.01;36.05;100213.70;1764137;80;21708;-52
2021/05/07 07:39:55;;;;;;;4.62;1.30;;;;;;;15.04;35.05;100219.31;1765988;80;21133;-47
2021/05/07 07:42:24;;;;;;;6.47;1.67;;;;;;;15.05;35.16;100214.33;1738560;80;21172;-50
2021/05/07 07:44:53;;;;;;;13.28;10.00;;;;;;;15.08;35.65;100206.86;1730812;79;21466;-47
2021/05/07 07:47:21;;;;;;;4.90;3.47;;;;;;;15.09;36.10;100211.27;1753242;79;21162;-53
2021/05/07 07:49:50;;;;;;;2.98;1.52;;;;;;;15.12;36.47;100200.77;1758278;80;21130;-47
2021/05/07 07:52:18;;;;;;;2.62;1.37;;;;;;;15.15;36.22;100200.52;1756473;80;21180;-47
2021/05/07 07:54:46;;;;;;;2.17;0.90;;;;;;;15.18;35.80;100202.94;1763999;80;22026;-47
2021/05/07 07:57:13;;;;;;;4.10;1.02;;;;;;;15.20;35.49;100202.33;1751479;80;21167;-47
2021/05/07 07:59:41;;;;;;;2.83;1.05;;;;;;;15.22;35.75;100200.38;1748924;80;21710;-47
2021/05/07 08:02:09;;;;;;;4.53;1.10;;;;;;;15.25;36.19;100204.15;1756393;80;21658;-47
2021/05/07 08:04:37;;;;;;;3.65;1.42;;;;;;;15.26;36.09;100195.09;1755016;80;21609;-48
2021/05/07 08:07:05;;;;;;;2.95;1.40;;;;;;;15.29;36.68;100196.67;1748769;80;21611;-46
2021/05/07 08:09:32;;;;;;;2.60;1.12;;;;;;;15.30;36.65;100188.50;1755140;80;21157;-47
2021/05/07 08:12:00;;;;;;;2.45;1.25;;;;;;;15.34;35.83;100189.09;1762487;80;21225;-46
2021/05/07 08:14:29;;;;;;;2.55;1.27;;;;;;;15.34;35.40;100191.28;1721215;81;21169;-47
2021/05/07 08:16:57;;;;;;;0.95;0.60;;;;;;;15.38;35.71;100188.36;1752502;80;21383;-46
2021/05/07 08:19:25;;;;;;;2.90;0.78;;;;;;;15.42;35.74;100191.14;1758830;80;21154;-47
2021/05/07 08:21:54;;;;;;;1.65;0.80;;;;;;;15.44;35.75;100193.21;1721098;82;21138;-44
2021/05/07 08:24:25;;;;;;;1.47;0.93;;;;;;;15.48;35.79;100197.36;1757205;80;21178;-50
2021/05/07 08:26:58;;;;;;;1.75;0.98;;;;;;;15.51;36.28;100193.06;1746244;80;21162;-47
2021/05/07 08:29:26;;;;;;;1.42;0.80;;;;;;;15.55;35.88;100190.50;1720171;82;21482;-48
2021/05/07 08:31:54;;;;;;;1.15;0.60;;;;;;;15.57;35.35;100188.51;1754260;80;21144;-49
2021/05/07 08:34:22;;;;;;;0.95;0.62;;;;;;;15.59;35.67;100190.08;1770021;80;21171;-48
2021/05/07 08:36:50;;;;;;;2.95;0.93;;;;;;;15.61;35.60;100188.63;1737237;80;21172;-48
2021/05/07 08:39:19;;;;;;;3.12;0.93;;;;;;;15.65;35.78;100190.08;1745574;80;21138;-47
2021/05/07 08:44:23;;;;;;;4.30;1.67;;;;;;;15.76;34.66;100187.36;1821729;76;29537;-46
2021/05/07 08:46:51;;;;;;;3.20;1.65;;;;;;;15.75;34.50;100179.45;1843535;76;21341;-49
2021/05/07 08:49:23;;;;;;;3.12;0.80;;;;;;;15.77;34.04;100178.33;1836563;76;21106;-52
2021/05/07 08:51:51;;;;;;;;;;;;;;;15.77;33.76;100170.73;1842251;76;21180;-47
2021/05/07 08:54:20;;;;;;;6.58;0.90;;;;;;;15.76;34.13;100181.14;1832762;77;20155;-46
2021/05/07 08:56:50;;;;;;;1.60;0.82;;;;;;;15.76;34.60;100183.33;1849864;76;21102;-47
2021/05/07 08:59:19;;;;;;;2.12;0.82;;;;;;;15.77;34.57;100184.17;1763848;80;21124;-44
2021/05/07 09:01:49;;;;;;;1.85;0.93;;;;;;;15.77;35.00;100181.48;1782759;80;21109;-46
2021/05/07 09:04:19;;;;;;;4.53;1.10;;;;;;;15.77;34.83;100182.36;1789834;79;21144;-48
2021/05/07 09:06:52;;;;;;;2.83;0.73;;;;;;;15.79;35.40;100182.22;1752986;80;21247;-49
2021/05/07 09:09:28;;;;;;;2.52;0.72;;;;;;;15.79;35.93;100191.62;1813316;78;21338;-43
2021/05/07 09:12:01;;;;;;;2.35;0.78;;;;;;;15.80;35.96;100182.59;1779733;80;21121;-47
2021/05/07 09:14:28;;;;;;;1.70;0.95;;;;;;;15.82;36.68;100185.98;1777618;79;21135;-47
2021/05/07 09:17:00;;;;;;;2.08;0.98;;;;;;;15.84;36.59;100177.80;1777633;79;21172;-48
2021/05/07 09:19:34;;;;;;;3.85;1.00;;;;;;;15.88;36.28;100173.88;1752715;80;21566;-47
2021/05/07 09:22:01;;;;;;;1.62;0.70;;;;;;;15.91;36.08;100171.77;1749702;80;21173;-44
2021/05/07 09:24:36;;;;;;;3.65;2.25;;;;;;;15.95;35.95;100160.23;1769689;79;21100;-48
2021/05/07 09:27:06;;;;;;;4.60;1.30;;;;;;;16.00;36.12;100156.66;1743840;80;21134;-47
2021/05/07 09:29:35;;;;;;;3.20;1.97;;;;;;;16.05;35.59;100153.11;1746419;80;21153;-47
2021/05/07 09:32:04;;;;;;;2.72;1.10;;;;;;;16.08;35.71;100142.08;1746841;81;21153;-47
2021/05/07 09:34:37;;;;;;;2.45;1.20;;;;;;;16.11;35.60;100139.63;1742770;80;21144;-46
2021/05/07 09:37:19;;;;;;;3.42;1.20;;;;;;;16.15;36.02;100126.24;1776926;79;21538;-45
2021/05/07 09:39:47;;;;;;;2.90;1.45;;;;;;;16.18;36.13;100131.38;1749527;81;21141;-46
2021/05/07 09:42:24;;;;;;;2.35;1.07;;;;;;;16.20;36.01;100118.16;1776091;79;21580;-50
2021/05/07 09:44:52;;;;;;;2.72;0.98;;;;;;;16.23;35.89;100107.62;1761882;79;21145;-51
2021/05/07 09:47:19;;;;;;;2.90;0.85;;;;;;;16.26;35.38;100107.84;1738963;82;21144;-45
2021/05/07 09:49:48;;;;;;;1.90;0.60;;;;;;;16.30;35.42;100109.25;1744516;81;21137;-45
2021/05/07 09:52:26;;;;;;;1.82;1.15;;;;;;;16.35;35.67;100101.63;1752797;81;21141;-47
2021/05/07 09:54:54;;;;;;;3.30;1.25;;;;;;;16.39;35.51;100097.69;1741548;81;21173;-52
2021/05/07 09:57:22;;;;;;;3.37;1.62;;;;;;;16.45;35.58;100089.05;1735758;81;21535;-49
2021/05/07 09:59:50;;;;;;;3.05;1.47;;;;;;;16.50;35.19;100091.34;1757180;79;21106;-46
2021/05/07 10:02:18;;;;;;;2.17;1.05;;;;;;;16.54;35.44;100086.90;1754094;80;21191;-47
2021/05/07 10:04:46;;;;;;;2.50;1.47;;;;;;;16.58;35.28;100081.61;1738302;81;21655;-49
2021/05/07 10:07:14;;;;;;;6.87;3.45;;;;;;;16.64;35.62;100076.16;1744627;80;21547;-50
2021/05/07 10:09:42;;;;;;;3.10;1.50;;;;;;;16.72;35.48;100079.50;1765286;80;21142;-44
2021/05/07 10:12:10;;;;;;;3.33;1.52;;;;;;;16.77;34.98;100078.09;1730812;82;21579;-51
2021/05/07 10:14:46;;;;;;;1.12;0.70;;;;;;;16.82;35.29;100075.86;1764471;79;21119;-50
2021/05/07 10:17:14;;;;;;;3.52;1.35;;;;;;;16.86;34.09;100069.72;1743832;80;21175;-49
2021/05/07 10:19:43;;;;;;;3.05;1.00;;;;;;;16.87;35.13;100060.14;1764291;79;21653;-49
2021/05/07 10:22:12;;;;;;;;;;;;;;;16.90;35.46;100060.86;1754863;79;21889;-48
2021/05/07 10:24:42;;;;;;;3.20;1.80;;;;;;;16.93;35.33;100053.84;1751220;81;20393;-51
2021/05/07 10:27:17;;;;;;;9.58;4.70;;;;;;;16.95;35.44;100054.05;1796393;79;21149;-47
2021/05/07 10:29:56;;;;;;;3.15;1.87;;;;;;;16.97;34.88;100050.72;1757815;79;21586;-48
2021/05/07 10:32:35;;;;;;;2.70;0.80;;;;;;;16.97;34.30;100054.77;1739791;81;21165;-46
2021/05/07 10:35:04;;;;;;;4.62;1.15;;;;;;;16.98;33.75;100042.14;1737580;81;21153;-48
2021/05/07 10:37:44;;;;;;;2.20;0.90;;;;;;;16.95;33.93;100041.93;1747335;81;21150;-47
2021/05/07 10:40:24;;;;;;;2.37;1.12;;;;;;;16.95;33.77;100044.63;1743516;81;21505;-48
2021/05/07 10:42:58;;;;;;;2.00;1.05;;;;;;;16.95;33.92;100038.39;1743883;81;21152;-52
2021/05/07 10:45:43;;;;;;;2.15;1.00;;;;;;;16.94;34.84;100028.62;1735341;81;21110;-49
2021/05/07 10:48:24;;;;;;;2.00;0.82;;;;;;;16.94;34.52;100020.05;1730420;82;21146;-48
2021/05/07 10:50:56;;;;;;;1.65;1.07;;;;;;;16.97;34.16;100011.67;1731569;81;21182;-48
2021/05/07 10:53:35;;;;;;;3.40;0.90;;;;;;;17.04;34.14;100002.04;1749445;81;21609;-49
2021/05/07 10:56:23;;;;;;;3.85;1.00;;;;;;;17.12;34.97;99998.63;1794456;78;21685;-44
2021/05/07 10:58:52;;;;;;;2.17;1.22;;;;;;;17.21;35.07;99988.34;1800659;78;21137;-49
2021/05/07 11:01:27;;;;;;;4.75;1.70;;;;;;;17.31;33.65;99981.57;1763878;79;21140;-48
2021/05/07 11:04:09;;;;;;;3.08;1.05;;;;;;;17.39;33.62;99972.79;1730509;81;21155;-46
2021/05/07 11:06:42;;;;;;;1.60;1.02;;;;;;;17.45;33.54;99965.45;1727685;82;21114;-45
2021/05/07 11:09:21;;;;;;;3.62;0.98;;;;;;;17.51;33.17;99974.29;1748119;79;21083;-47
2021/05/07 11:11:53;;;;;;;2.62;0.78;;;;;;;17.55;33.12;99981.09;1756784;80;21642;-48
2021/05/07 11:14:27;;;;;;;4.72;1.02;;;;;;;17.58;32.59;99967.83;1752214;79;21555;-46
2021/05/07 11:16:54;;;;;;;1.82;0.80;;;;;;;17.59;32.86;99968.16;1755499;79;21142;-48
2021/05/07 11:19:33;;;;;;;2.40;0.98;;;;;;;17.60;32.59;99972.07;1750837;79;21154;-52
2021/05/07 11:22:07;;;;;;;2.98;1.10;;;;;;;17.60;33.05;99973.42;1737325;82;21567;-48
2021/05/07 11:24:40;;;;;;;2.15;0.72;;;;;;;17.63;33.38;99969.58;1722521;82;21561;-47
2021/05/07 11:27:19;;;;;;;4.42;0.85;;;;;;;17.61;32.47;99962.13;1732327;82;21142;-48
2021/05/07 11:29:48;;;;;;;1.62;1.32;;;;;;;17.61;32.55;99950.00;1735509;81;21133;-47
2021/05/07 11:32:21;;;;;;;2.15;0.85;;;;;;;17.61;33.23;99948.15;1729576;82;21130;-49
2021/05/07 11:34:58;;;;;;;1.98;0.88;;;;;;;17.61;33.07;99944.11;1762234;80;21150;-51
2021/05/07 11:37:28;;;;;;;3.42;0.90;;;;;;;17.65;33.20;99952.77;1755642;81;21454;-46
2021/05/07 11:40:05;;;;;;;2.30;1.02;;;;;;;17.67;33.37;99934.59;1756416;80;21581;-46
2021/05/07 11:42:44;;;;;;;5.15;1.55;;;;;;;17.68;33.39;99925.00;1767818;80;21165;-46
2021/05/07 11:45:20;;;;;;;3.37;1.70;;;;;;;17.71;33.67;99919.33;1727390;81;21167;-47
2021/05/07 11:47:48;;;;;;;2.08;1.10;;;;;;;17.73;33.97;99921.86;1742483;81;21598;-45
2021/05/07 11:50:19;;;;;;;2.87;0.80;;;;;;;17.76;34.55;99920.20;1725769;81;21176;-48